createdAt,value
2018-03-20T00:00:01.914Z,100215.14
2018-03-20T00:01:07.545Z,100210.05
2018-03-20T00:02:13.523Z,100207.02
2018-03-20T00:03:19.811Z,100207.48
2018-03-20T00:04:26.071Z,100210.37
2018-03-20T00:05:32.340Z,100203.14
2018-03-20T00:06:38.514Z,100203.61
2018-03-20T00:07:44.740Z,100204.47
2018-03-20T00:08:50.946Z,100202.74
2018-03-20T00:09:57.121Z,100200.14
2018-03-20T00:11:03.298Z,100204.31
2018-03-20T00:12:09.173Z,100203.89
2018-03-20T00:13:15.046Z,100202.63
2018-03-20T00:14:21.267Z,100200.90
2018-03-20T00:15:27.415Z,100198.34
2018-03-20T00:16:33.627Z,100203.50
2018-03-20T00:17:43.014Z,100200.52
2018-03-20T00:18:49.216Z,100203.52
2018-03-20T00:19:55.434Z,100197.58
2018-03-20T00:21:02.569Z,100201.33
2018-03-20T00:22:08.457Z,100197.05
2018-03-20T00:23:14.353Z,100199.14
2018-03-20T00:24:20.562Z,100192.30
2018-03-20T00:25:26.859Z,100191.44
2018-03-20T00:26:33.037Z,100194.46
2018-03-20T00:27:39.225Z,100191.39
2018-03-20T00:28:45.386Z,100193.63
2018-03-20T00:29:51.623Z,100191.87
2018-03-20T00:30:57.858Z,100197.78
2018-03-20T00:32:03.987Z,100188.34
2018-03-20T00:33:09.985Z,100193.88
2018-03-20T00:34:16.350Z,100191.31
2018-03-20T00:35:22.480Z,100190.55
2018-03-20T00:36:28.647Z,100186.74
2018-03-20T00:37:35.598Z,100188.41
2018-03-20T00:38:41.733Z,100184.53
2018-03-20T00:39:47.907Z,100184.94
2018-03-20T00:40:54.023Z,100186.30
2018-03-20T00:42:00.214Z,100184.56
2018-03-20T00:43:06.346Z,100182.87
2018-03-20T00:44:12.481Z,100185.31
2018-03-20T00:45:18.650Z,100184.46
2018-03-20T00:46:24.823Z,100187.31
2018-03-20T00:47:31.049Z,100193.74
2018-03-20T00:48:37.191Z,100182.59
2018-03-20T00:49:43.397Z,100181.39
2018-03-20T00:50:49.581Z,100181.80
2018-03-20T00:51:55.746Z,100180.00
2018-03-20T00:53:01.991Z,100179.13
2018-03-20T00:54:07.841Z,100177.88
2018-03-20T00:55:14.051Z,100176.22
2018-03-20T00:56:20.124Z,100172.37
2018-03-20T00:57:26.621Z,100176.59
2018-03-20T00:58:33.132Z,100175.31
2018-03-20T00:59:39.337Z,100173.13
2018-03-20T01:00:45.584Z,100173.21
2018-03-20T01:01:51.701Z,100173.70
2018-03-20T01:02:57.908Z,100173.31
2018-03-20T01:04:04.094Z,100174.95
2018-03-20T01:05:10.301Z,100177.03
2018-03-20T01:06:16.456Z,100171.55
2018-03-20T01:07:22.619Z,100176.66
2018-03-20T01:08:28.819Z,100176.70
2018-03-20T01:09:34.708Z,100177.45
2018-03-20T01:10:40.900Z,100179.14
2018-03-20T01:11:47.076Z,100175.67
2018-03-20T01:12:53.281Z,100174.86
2018-03-20T01:14:00.648Z,100169.77
2018-03-20T01:15:06.852Z,100169.81
2018-03-20T01:16:12.758Z,100170.26
2018-03-20T01:17:18.716Z,100175.46
2018-03-20T01:18:24.844Z,100176.78
2018-03-20T01:19:31.823Z,100174.62
2018-03-20T01:20:42.555Z,100170.38
2018-03-20T01:21:48.900Z,100175.08
2018-03-20T01:22:55.117Z,100170.39
2018-03-20T01:24:01.994Z,100169.97
2018-03-20T01:25:08.164Z,100170.38
2018-03-20T01:26:14.403Z,100169.94
2018-03-20T01:27:20.626Z,100174.58
2018-03-20T01:28:26.777Z,100169.45
2018-03-20T01:29:32.654Z,100171.11
2018-03-20T01:30:38.848Z,100173.63
2018-03-20T01:31:45.009Z,100166.34
2018-03-20T01:32:58.644Z,100161.67
2018-03-20T01:34:04.805Z,100161.23
2018-03-20T01:35:13.082Z,100159.48
2018-03-20T01:36:19.697Z,100162.89
2018-03-20T01:37:25.600Z,100166.27
2018-03-20T01:38:31.782Z,100161.98
2018-03-20T01:39:37.789Z,100160.22
2018-03-20T01:40:43.944Z,100160.67
2018-03-20T01:41:50.133Z,100162.32
2018-03-20T01:42:56.291Z,100166.21
2018-03-20T01:44:02.457Z,100168.47
2018-03-20T01:45:08.697Z,100162.02
2018-03-20T01:46:15.114Z,100165.00
2018-03-20T01:47:21.251Z,100162.45
2018-03-20T01:48:27.377Z,100162.02
2018-03-20T01:49:33.556Z,100163.27
2018-03-20T01:50:39.794Z,100161.12
2018-03-20T01:51:45.927Z,100163.22
2018-03-20T01:53:03.104Z,100161.59
2018-03-20T01:54:09.185Z,100161.63
2018-03-20T01:55:15.321Z,100156.04
2018-03-20T01:56:21.492Z,100153.86
2018-03-20T01:57:27.569Z,100156.97
2018-03-20T01:58:33.884Z,100156.45
2018-03-20T01:59:40.085Z,100155.58
2018-03-20T02:00:46.249Z,100158.61
2018-03-20T02:01:51.413Z,100154.28
2018-03-20T02:02:57.353Z,100157.33
2018-03-20T02:04:03.574Z,100153.91
2018-03-20T02:05:09.721Z,100150.02
2018-03-20T02:06:16.206Z,100150.84
2018-03-20T02:07:22.388Z,100159.33
2018-03-20T02:08:28.524Z,100157.50
2018-03-20T02:09:34.916Z,100158.80
2018-03-20T02:10:41.103Z,100155.05
2018-03-20T02:11:47.518Z,100161.48
2018-03-20T02:12:53.706Z,100152.15
2018-03-20T02:13:59.923Z,100156.83
2018-03-20T02:15:05.779Z,100155.13
2018-03-20T02:16:11.950Z,100153.50
2018-03-20T02:17:18.211Z,100156.48
2018-03-20T02:18:24.357Z,100148.81
2018-03-20T02:19:30.158Z,100147.52
2018-03-20T02:20:36.344Z,100143.63
2018-03-20T02:21:43.396Z,100139.39
2018-03-20T02:22:49.580Z,100147.88
2018-03-20T02:23:55.778Z,100141.77
2018-03-20T02:25:01.985Z,100145.16
2018-03-20T02:26:08.185Z,100146.75
2018-03-20T02:27:14.322Z,100144.19
2018-03-20T02:28:20.568Z,100141.13
2018-03-20T02:29:26.810Z,100140.31
2018-03-20T02:30:32.965Z,100138.55
2018-03-20T02:31:39.278Z,100133.81
2018-03-20T02:32:45.780Z,100140.99
2018-03-20T02:33:52.009Z,100137.09
2018-03-20T02:34:58.164Z,100132.79
2018-03-20T02:36:04.020Z,100131.87
2018-03-20T02:37:10.208Z,100138.65
2018-03-20T02:38:16.397Z,100133.19
2018-03-20T02:39:22.567Z,100139.06
2018-03-20T02:40:28.425Z,100134.80
2018-03-20T02:41:34.607Z,100137.59
2018-03-20T02:42:40.819Z,100143.45
2018-03-20T02:43:47.002Z,100143.56
2018-03-20T02:44:53.263Z,100141.77
2018-03-20T02:45:59.479Z,100142.72
2018-03-20T02:47:05.435Z,100141.89
2018-03-20T02:48:12.274Z,100140.59
2018-03-20T02:49:18.451Z,100142.19
2018-03-20T02:50:24.646Z,100141.00
2018-03-20T02:51:30.799Z,100141.71
2018-03-20T02:52:37.020Z,100138.37
2018-03-20T02:53:43.224Z,100140.94
2018-03-20T02:54:49.353Z,100135.84
2018-03-20T02:55:55.532Z,100136.91
2018-03-20T02:57:01.770Z,100141.62
2018-03-20T02:58:07.705Z,100147.75
2018-03-20T02:59:13.559Z,100140.44
2018-03-20T03:00:19.739Z,100145.92
2018-03-20T03:01:25.963Z,100148.81
2018-03-20T03:02:32.492Z,100140.12
2018-03-20T03:03:38.686Z,100140.97
2018-03-20T03:04:44.868Z,100139.24
2018-03-20T03:05:51.042Z,100144.30
2018-03-20T03:06:56.988Z,100144.35
2018-03-20T03:08:03.238Z,100135.09
2018-03-20T03:09:09.769Z,100137.73
2018-03-20T03:10:16.872Z,100142.44
2018-03-20T03:11:23.935Z,100145.91
2018-03-20T03:12:30.172Z,100141.58
2018-03-20T03:13:36.385Z,100139.50
2018-03-20T03:14:42.629Z,100140.45
2018-03-20T03:15:48.803Z,100134.90
2018-03-20T03:16:54.669Z,100131.10
2018-03-20T03:18:00.853Z,100135.83
2018-03-20T03:19:06.976Z,100130.63
2018-03-20T03:20:14.308Z,100127.20
2018-03-20T03:21:24.361Z,100127.56
2018-03-20T03:22:30.537Z,100130.53
2018-03-20T03:23:36.785Z,100126.30
2018-03-20T03:24:47.902Z,100133.07
2018-03-20T03:25:55.142Z,100131.36
2018-03-20T03:27:01.425Z,100133.13
2018-03-20T03:28:07.629Z,100130.12
2018-03-20T03:29:13.813Z,100127.54
2018-03-20T03:30:20.067Z,100131.79
2018-03-20T03:31:26.468Z,100134.77
2018-03-20T03:32:32.695Z,100131.30
2018-03-20T03:33:39.327Z,100135.59
2018-03-20T03:34:45.596Z,100136.57
2018-03-20T03:35:51.736Z,100133.95
2018-03-20T03:36:57.682Z,100138.48
2018-03-20T03:38:03.845Z,100139.84
2018-03-20T03:39:10.423Z,100135.50
2018-03-20T03:40:16.721Z,100138.50
2018-03-20T03:41:23.707Z,100130.72
2018-03-20T03:42:30.074Z,100135.31
2018-03-20T03:43:36.456Z,100134.81
2018-03-20T03:44:43.035Z,100130.90
2018-03-20T03:45:51.026Z,100128.37
2018-03-20T03:47:02.166Z,100131.25
2018-03-20T03:48:09.218Z,100130.23
2018-03-20T03:49:15.874Z,100135.22
2018-03-20T03:50:22.439Z,100137.91
2018-03-20T03:51:30.212Z,100140.30
2018-03-20T03:52:36.687Z,100137.64
2018-03-20T03:53:42.818Z,100132.84
2018-03-20T03:54:49.481Z,100133.28
2018-03-20T03:55:59.993Z,100136.25
2018-03-20T03:57:06.160Z,100137.50
2018-03-20T03:58:12.316Z,100135.61
2018-03-20T03:59:19.236Z,100139.64
2018-03-20T04:00:26.045Z,100142.17
2018-03-20T04:01:32.981Z,100137.29
2018-03-20T04:02:40.122Z,100142.28
2018-03-20T04:03:46.444Z,100136.05
2018-03-20T04:04:52.608Z,100139.11
2018-03-20T04:05:59.766Z,100138.14
2018-03-20T04:07:07.874Z,100137.63
2018-03-20T04:08:18.939Z,100137.39
2018-03-20T04:09:25.145Z,100141.02
2018-03-20T04:10:31.348Z,100139.41
2018-03-20T04:11:37.528Z,100139.80
2018-03-20T04:12:43.769Z,100142.08
2018-03-20T04:13:49.725Z,100136.28
2018-03-20T04:14:57.705Z,100139.91
2018-03-20T04:16:08.820Z,100136.92
2018-03-20T04:17:15.022Z,100139.16
2018-03-20T04:18:21.754Z,100144.64
2018-03-20T04:19:28.234Z,100141.59
2018-03-20T04:20:34.274Z,100135.87
2018-03-20T04:21:40.480Z,100133.77
2018-03-20T04:22:47.157Z,100136.84
2018-03-20T04:23:53.793Z,100133.45
2018-03-20T04:25:06.055Z,100130.03
2018-03-20T04:26:16.204Z,100125.91
2018-03-20T04:27:23.116Z,100121.89
2018-03-20T04:28:39.494Z,100116.89
2018-03-20T04:29:46.798Z,100110.15
2018-03-20T04:30:53.422Z,100111.05
2018-03-20T04:31:59.635Z,100112.35
2018-03-20T04:33:06.178Z,100111.88
2018-03-20T04:34:12.417Z,100113.38
2018-03-20T04:35:18.626Z,100108.78
2018-03-20T04:36:24.772Z,100110.39
2018-03-20T04:37:30.931Z,100107.40
2018-03-20T04:38:37.160Z,100106.42
2018-03-20T04:39:43.383Z,100114.50
2018-03-20T04:40:49.578Z,100111.16
2018-03-20T04:41:55.781Z,100111.75
2018-03-20T04:43:02.032Z,100115.26
2018-03-20T04:44:08.170Z,100110.58
2018-03-20T04:45:14.397Z,100108.36
2018-03-20T04:46:20.576Z,100109.22
2018-03-20T04:47:26.788Z,100105.89
2018-03-20T04:48:32.975Z,100102.66
2018-03-20T04:49:39.133Z,100106.39
2018-03-20T04:50:45.268Z,100104.75
2018-03-20T04:51:51.446Z,100109.80
2018-03-20T04:52:57.349Z,100102.14
2018-03-20T04:54:03.532Z,100105.09
2018-03-20T04:55:09.691Z,100111.88
2018-03-20T04:56:15.877Z,100112.52
2018-03-20T04:57:22.133Z,100106.65
2018-03-20T04:58:28.419Z,100109.48
2018-03-20T04:59:34.558Z,100108.20
2018-03-20T05:00:40.753Z,100100.60
2018-03-20T05:01:46.973Z,100098.17
2018-03-20T05:02:53.188Z,100098.38
2018-03-20T05:03:59.371Z,100101.46
2018-03-20T05:05:05.172Z,100100.23
2018-03-20T05:06:11.375Z,100105.73
2018-03-20T05:07:17.843Z,100110.63
2018-03-20T05:08:25.449Z,100107.22
2018-03-20T05:09:31.808Z,100118.38
2018-03-20T05:10:37.792Z,100112.67
2018-03-20T05:11:44.104Z,100116.28
2018-03-20T05:12:50.610Z,100113.81
2018-03-20T05:13:57.642Z,100110.55
2018-03-20T05:15:04.516Z,100107.70
2018-03-20T05:16:11.260Z,100110.66
2018-03-20T05:17:18.303Z,100112.83
2018-03-20T05:18:24.882Z,100104.83
2018-03-20T05:31:32.614Z,100105.00
2018-03-20T05:32:39.047Z,100102.14
2018-03-20T05:33:45.095Z,100098.33
2018-03-20T05:34:51.100Z,100096.70
2018-03-20T05:35:57.064Z,100098.45
2018-03-20T05:37:03.105Z,100101.05
2018-03-20T05:38:09.058Z,100103.67
2018-03-20T05:39:15.090Z,100099.44
2018-03-20T05:40:21.067Z,100099.14
2018-03-20T05:41:27.110Z,100106.05
2018-03-20T05:42:33.061Z,100101.80
2018-03-20T05:43:39.098Z,100109.53
2018-03-20T05:44:45.088Z,100101.85
2018-03-20T05:45:51.160Z,100101.05
2018-03-20T05:47:02.681Z,100100.67
2018-03-20T05:48:14.207Z,100103.29
2018-03-20T05:50:58.721Z,100100.36
2018-03-20T05:52:10.094Z,100096.12
2018-03-20T05:53:17.396Z,100091.47
2018-03-20T05:54:23.594Z,100093.63
2018-03-20T05:55:29.789Z,100098.70
2018-03-20T05:56:35.964Z,100105.98
2018-03-20T05:57:42.163Z,100100.46
2018-03-20T05:58:48.349Z,100101.37
2018-03-20T05:59:54.487Z,100103.51
2018-03-20T06:01:00.509Z,100102.63
2018-03-20T06:02:06.661Z,100107.23
2018-03-20T06:03:12.831Z,100107.36
2018-03-20T06:04:19.044Z,100103.93
2018-03-20T06:05:26.759Z,100104.41
2018-03-20T06:06:33.917Z,100110.42
2018-03-20T06:07:40.171Z,100102.74
2018-03-20T06:08:46.840Z,100109.16
2018-03-20T06:09:53.118Z,100110.47
2018-03-20T06:10:59.298Z,100119.47
2018-03-20T06:12:05.605Z,100116.48
2018-03-20T06:13:11.941Z,100119.09
2018-03-20T06:14:18.195Z,100118.72
2018-03-20T06:15:24.513Z,100119.63
2018-03-20T06:16:30.895Z,100125.61
2018-03-20T06:17:37.284Z,100121.77
2018-03-20T06:18:44.425Z,100125.20
2018-03-20T06:19:52.794Z,100120.09
2018-03-20T06:20:59.006Z,100118.41
2018-03-20T06:22:05.200Z,100125.31
2018-03-20T06:23:11.328Z,100129.63
2018-03-20T06:24:17.545Z,100130.05
2018-03-20T06:25:23.727Z,100130.08
2018-03-20T06:26:29.915Z,100133.05
2018-03-20T06:27:36.106Z,100135.73
2018-03-20T06:28:42.640Z,100133.19
2018-03-20T06:29:48.789Z,100129.75
2018-03-20T06:30:54.954Z,100137.50
2018-03-20T06:32:00.881Z,100137.92
2018-03-20T06:33:07.058Z,100139.66
2018-03-20T06:34:12.914Z,100139.20
2018-03-20T06:35:19.130Z,100140.52
2018-03-20T06:36:25.391Z,100141.80
2018-03-20T06:37:31.548Z,100146.11
2018-03-20T06:38:37.714Z,100143.53
2018-03-20T06:39:43.905Z,100139.63
2018-03-20T06:40:50.113Z,100141.38
2018-03-20T06:41:56.271Z,100146.53
2018-03-20T06:43:02.231Z,100144.83
2018-03-20T06:44:08.404Z,100145.66
2018-03-20T06:45:14.603Z,100144.42
2018-03-20T06:46:20.872Z,100149.09
2018-03-20T06:47:27.041Z,100149.58
2018-03-20T06:48:33.270Z,100143.60
2018-03-20T06:49:39.428Z,100151.66
2018-03-20T06:50:45.576Z,100149.54
2018-03-20T06:51:51.978Z,100158.45
2018-03-20T06:52:58.164Z,100149.91
2018-03-20T06:54:04.432Z,100152.95
2018-03-20T06:55:10.606Z,100153.44
2018-03-20T06:56:17.779Z,100162.87
2018-03-20T06:57:24.025Z,100159.03
2018-03-20T06:58:30.187Z,100156.83
2018-03-20T06:59:36.438Z,100162.41
2018-03-20T07:00:42.821Z,100170.61
2018-03-20T07:01:48.847Z,100168.06
2018-03-20T07:02:55.129Z,100164.20
2018-03-20T07:04:01.335Z,100165.48
2018-03-20T07:05:07.483Z,100165.52
2018-03-20T07:06:14.373Z,100171.16
2018-03-20T07:07:20.786Z,100171.57
2018-03-20T07:08:30.965Z,100166.89
2018-03-20T07:09:37.824Z,100163.89
2018-03-20T07:10:43.976Z,100164.72
2018-03-20T07:11:50.187Z,100166.81
2018-03-20T07:12:56.625Z,100165.98
2018-03-20T07:14:07.812Z,100169.84
2018-03-20T07:15:13.988Z,100160.90
2018-03-20T07:16:21.508Z,100164.38
2018-03-20T07:17:32.879Z,100159.69
2018-03-20T07:18:39.066Z,100156.70
2018-03-20T07:19:45.975Z,100160.13
2018-03-20T07:20:52.226Z,100160.53
2018-03-20T07:21:58.421Z,100156.73
2018-03-20T07:23:04.649Z,100152.44
2018-03-20T07:24:10.893Z,100157.53
2018-03-20T07:25:17.369Z,100159.27
2018-03-20T07:26:23.590Z,100166.09
2018-03-20T07:27:29.842Z,100159.31
2018-03-20T07:28:36.059Z,100159.66
2018-03-20T07:29:42.221Z,100151.98
2018-03-20T07:30:48.371Z,100160.92
2018-03-20T07:31:54.506Z,100161.37
2018-03-20T07:33:00.652Z,100163.48
2018-03-20T07:34:07.119Z,100155.42
2018-03-20T07:35:13.347Z,100165.27
2018-03-20T07:36:19.532Z,100164.53
2018-03-20T07:37:30.694Z,100170.97
2018-03-20T07:38:38.948Z,100165.87
2018-03-20T07:39:44.903Z,100159.84
2018-03-20T07:40:51.065Z,100162.91
2018-03-20T07:41:57.243Z,100165.10
2018-03-20T07:43:03.835Z,100171.52
2018-03-20T07:44:09.852Z,100163.78
2018-03-20T07:45:15.842Z,100165.08
2018-03-20T07:46:22.057Z,100168.07
2018-03-20T07:47:28.222Z,100171.52
2018-03-20T07:48:34.391Z,100170.23
2018-03-20T07:49:40.609Z,100171.94
2018-03-20T07:50:46.813Z,100176.21
2018-03-20T07:51:53.060Z,100168.97
2018-03-20T07:53:08.106Z,100173.66
2018-03-20T07:54:14.258Z,100176.19
2018-03-20T07:55:20.421Z,100170.60
2018-03-20T07:56:26.619Z,100179.21
2018-03-20T07:57:32.778Z,100177.87
2018-03-20T07:58:38.996Z,100171.01
2018-03-20T07:59:44.994Z,100176.19
2018-03-20T08:00:51.172Z,100173.66
2018-03-20T08:01:57.378Z,100179.23
2018-03-20T08:03:03.596Z,100169.78
2018-03-20T08:04:09.814Z,100174.88
2018-03-20T08:05:16.024Z,100176.62
2018-03-20T08:06:21.974Z,100172.73
2018-03-20T08:07:28.127Z,100174.48
2018-03-20T08:08:34.680Z,100171.89
2018-03-20T08:09:40.978Z,100172.33
2018-03-20T08:10:47.134Z,100170.19
2018-03-20T08:11:53.403Z,100173.55
2018-03-20T08:12:59.613Z,100180.91
2018-03-20T08:14:06.315Z,100178.75
2018-03-20T08:15:12.460Z,100180.09
2018-03-20T08:16:18.689Z,100181.41
2018-03-20T08:17:24.936Z,100189.10
2018-03-20T08:18:31.097Z,100185.30
2018-03-20T08:19:37.271Z,100190.86
2018-03-20T08:20:43.572Z,100176.34
2018-03-20T08:21:49.817Z,100183.67
2018-03-20T08:22:55.991Z,100190.55
2018-03-20T08:24:02.140Z,100187.53
2018-03-20T08:25:08.343Z,100190.56
2018-03-20T08:26:14.610Z,100183.68
2018-03-20T08:27:20.777Z,100190.55
2018-03-20T08:28:26.981Z,100186.72
2018-03-20T08:29:33.231Z,100190.16
2018-03-20T08:30:39.436Z,100186.73
2018-03-20T08:31:45.693Z,100187.54
2018-03-20T08:32:51.904Z,100190.56
2018-03-20T08:33:58.062Z,100182.87
2018-03-20T08:35:03.940Z,100182.91
2018-03-20T08:36:10.152Z,100183.75
2018-03-20T08:37:16.351Z,100183.77
2018-03-20T08:38:22.521Z,100184.62
2018-03-20T08:39:28.995Z,100186.77
2018-03-20T08:40:35.346Z,100184.66
2018-03-20T08:41:41.584Z,100176.53
2018-03-20T08:42:47.770Z,100184.27
2018-03-20T08:43:53.936Z,100182.53
2018-03-20T08:45:00.097Z,100182.10
2018-03-20T08:46:06.068Z,100183.39
2018-03-20T08:47:12.270Z,100183.84
2018-03-20T08:48:18.404Z,100184.70
2018-03-20T08:49:24.614Z,100183.39
2018-03-20T08:50:30.807Z,100188.55
2018-03-20T08:51:36.705Z,100192.84
2018-03-20T08:52:42.600Z,100190.28
2018-03-20T08:53:48.807Z,100190.71
2018-03-20T08:54:54.968Z,100193.72
2018-03-20T08:56:01.172Z,100195.84
2018-03-20T08:57:07.377Z,100200.16
2018-03-20T08:58:13.596Z,100198.42
2018-03-20T08:59:19.761Z,100199.72
2018-03-20T09:00:27.918Z,100203.16
2018-03-20T09:01:40.506Z,100204.42
2018-03-20T09:02:46.742Z,100203.14
2018-03-20T09:03:53.737Z,100196.29
2018-03-20T09:04:59.900Z,100193.27
2018-03-20T09:06:05.439Z,100200.13
2018-03-20T09:07:11.470Z,100205.30
2018-03-20T09:08:17.635Z,100199.72
2018-03-20T09:09:24.255Z,100207.42
2018-03-20T09:10:30.455Z,100201.01
2018-03-20T09:11:36.587Z,100200.55
2018-03-20T09:12:42.750Z,100202.70
2018-03-20T09:13:48.957Z,100208.71
2018-03-20T09:14:55.143Z,100210.45
2018-03-20T09:16:01.359Z,100208.73
2018-03-20T09:17:07.507Z,100211.72
2018-03-20T09:18:13.702Z,100208.73
2018-03-20T09:19:19.972Z,100208.72
2018-03-20T09:20:26.141Z,100214.73
2018-03-20T09:21:35.760Z,100212.59
2018-03-20T09:22:44.440Z,100212.16
2018-03-20T09:23:50.645Z,100219.44
2018-03-20T09:24:56.822Z,100219.44
2018-03-20T09:26:03.007Z,100223.75
2018-03-20T09:27:09.180Z,100218.16
2018-03-20T09:28:15.361Z,100219.45
2018-03-20T09:29:21.535Z,100225.88
2018-03-20T09:30:27.771Z,100223.73
2018-03-20T09:31:33.926Z,100225.03
2018-03-20T09:32:40.095Z,100228.89
2018-03-20T09:33:46.286Z,100222.89
2018-03-20T09:34:52.483Z,100230.61
2018-03-20T09:35:59.642Z,100226.32
2018-03-20T09:37:05.841Z,100229.33
2018-03-20T09:38:11.980Z,100228.47
2018-03-20T09:39:17.905Z,100236.20
2018-03-20T09:40:24.101Z,100227.62
2018-03-20T09:41:30.238Z,100230.19
2018-03-20T09:42:37.032Z,100234.48
2018-03-20T09:43:49.664Z,100234.48
2018-03-20T09:44:55.884Z,100236.17
2018-03-20T09:46:02.046Z,100235.34
2018-03-20T09:47:08.177Z,100234.91
2018-03-20T09:48:14.380Z,100236.63
2018-03-20T09:49:20.590Z,100237.48
2018-03-20T09:50:26.800Z,100240.48
2018-03-20T09:51:32.734Z,100236.19
2018-03-20T09:52:38.920Z,100243.90
2018-03-20T09:53:45.306Z,100239.61
2018-03-20T09:54:51.463Z,100238.34
2018-03-20T09:55:57.605Z,100246.52
2018-03-20T09:57:03.794Z,100245.20
2018-03-20T09:58:09.947Z,100245.64
2018-03-20T09:59:15.959Z,100247.78
2018-03-20T10:00:22.154Z,100249.49
2018-03-20T10:01:28.077Z,100251.59
2018-03-20T10:02:34.290Z,100248.17
2018-03-20T10:03:45.476Z,100249.45
2018-03-20T10:04:51.962Z,100252.88
2018-03-20T10:05:58.171Z,100249.44
2018-03-20T10:07:04.364Z,100250.30
2018-03-20T10:08:10.541Z,100247.27
2018-03-20T10:09:16.781Z,100252.84
2018-03-20T10:10:22.957Z,100255.39
2018-03-20T10:11:29.105Z,100255.80
2018-03-20T10:12:35.358Z,100258.86
2018-03-20T10:13:41.578Z,100260.09
2018-03-20T10:14:47.704Z,100259.66
2018-03-20T10:15:53.909Z,100258.78
2018-03-20T10:17:00.101Z,100264.73
2018-03-20T10:18:05.910Z,100260.92
2018-03-20T10:19:12.096Z,100263.48
2018-03-20T10:20:18.378Z,100262.22
2018-03-20T10:21:24.706Z,100263.00
2018-03-20T10:22:30.902Z,100268.57
2018-03-20T10:23:37.061Z,100268.13
2018-03-20T10:24:43.250Z,100260.75
2018-03-20T10:25:49.181Z,100268.52
2018-03-20T10:26:55.321Z,100271.95
2018-03-20T10:28:01.777Z,100269.72
2018-03-20T10:29:08.514Z,100270.59
2018-03-20T10:30:14.736Z,100276.12
2018-03-20T10:31:20.883Z,100271.48
2018-03-20T10:32:27.031Z,100276.16
2018-03-20T10:33:33.284Z,100273.48
2018-03-20T10:34:39.513Z,100271.37
2018-03-20T10:35:45.714Z,100268.75
2018-03-20T10:36:51.979Z,100271.84
2018-03-20T10:37:58.159Z,100273.50
2018-03-20T10:39:09.800Z,100271.74
2018-03-20T10:40:15.929Z,100277.29
2018-03-20T10:41:22.102Z,100276.06
2018-03-20T10:42:28.306Z,100285.12
2018-03-20T10:43:34.451Z,100278.69
2018-03-20T10:44:40.352Z,100287.74
2018-03-20T10:45:46.607Z,100282.16
2018-03-20T10:46:52.864Z,100289.53
2018-03-20T10:47:59.060Z,100287.34
2018-03-20T10:49:05.246Z,100289.52
2018-03-20T10:50:11.450Z,100294.73
2018-03-20T10:51:17.637Z,100289.49
2018-03-20T10:52:23.894Z,100294.20
2018-03-20T10:53:30.042Z,100298.52
2018-03-20T10:54:36.264Z,100290.72
2018-03-20T10:55:42.518Z,100291.63
2018-03-20T10:56:48.464Z,100294.59
2018-03-20T10:57:54.656Z,100299.77
2018-03-20T10:59:00.856Z,100306.20
2018-03-20T11:00:06.401Z,100302.81
2018-03-20T11:01:17.862Z,100306.23
2018-03-20T11:02:29.535Z,100300.58
2018-03-20T11:03:35.705Z,100301.48
2018-03-20T11:04:41.882Z,100299.70
2018-03-20T11:05:47.790Z,100307.09
2018-03-20T11:06:54.177Z,100311.84
2018-03-20T11:08:00.317Z,100308.01
2018-03-20T11:09:05.783Z,100304.59
2018-03-20T11:10:11.739Z,100305.05
2018-03-20T11:11:17.934Z,100311.06
2018-03-20T11:12:24.170Z,100306.38
2018-03-20T11:13:30.354Z,100311.52
2018-03-20T11:14:36.590Z,100313.16
2018-03-20T11:15:42.736Z,100311.87
2018-03-20T11:16:48.937Z,100318.28
2018-03-20T11:17:55.144Z,100319.08
2018-03-20T11:19:01.396Z,100320.28
2018-03-20T11:20:07.645Z,100318.55
2018-03-20T11:21:13.945Z,100321.55
2018-03-20T11:22:20.163Z,100321.55
2018-03-20T11:23:26.378Z,100318.92
2018-03-20T11:24:32.609Z,100320.81
2018-03-20T11:25:38.914Z,100322.44
2018-03-20T11:26:45.100Z,100316.32
2018-03-20T11:27:51.310Z,100319.34
2018-03-20T11:28:57.558Z,100325.81
2018-03-20T11:30:03.149Z,100322.39
2018-03-20T11:31:09.329Z,100314.98
2018-03-20T11:32:15.519Z,100323.92
2018-03-20T11:33:22.108Z,100322.50
2018-03-20T11:34:28.268Z,100326.69
2018-03-20T11:35:34.194Z,100333.22
2018-03-20T11:36:40.204Z,100334.08
2018-03-20T11:37:46.080Z,100335.86
2018-03-20T11:38:52.298Z,100341.41
2018-03-20T11:39:58.504Z,100347.88
2018-03-20T11:41:04.717Z,100347.98
2018-03-20T11:42:10.965Z,100351.43
2018-03-20T11:43:17.136Z,100351.86
2018-03-20T11:44:23.372Z,100352.26
2018-03-20T11:45:29.522Z,100359.16
2018-03-20T11:46:35.678Z,100359.19
2018-03-20T11:47:41.930Z,100360.50
2018-03-20T11:48:54.273Z,100363.50
2018-03-20T11:50:00.454Z,100355.33
2018-03-20T11:51:09.550Z,100368.70
2018-03-20T11:52:15.795Z,100366.11
2018-03-20T11:53:22.005Z,100367.88
2018-03-20T11:54:32.094Z,100370.89
2018-03-20T11:55:38.311Z,100366.11
2018-03-20T11:56:44.443Z,100369.07
2018-03-20T11:57:51.246Z,100372.47
2018-03-20T11:58:57.421Z,100368.11
2018-03-20T12:00:03.284Z,100368.51
2018-03-20T12:01:09.454Z,100370.20
2018-03-20T12:02:15.579Z,100378.31
2018-03-20T12:03:21.849Z,100379.17
2018-03-20T12:04:28.016Z,100379.66
2018-03-20T12:05:34.209Z,100374.06
2018-03-20T12:06:40.403Z,100374.95
2018-03-20T12:07:56.521Z,100381.33
2018-03-20T12:09:13.474Z,100383.05
2018-03-20T12:10:19.408Z,100382.22
2018-03-20T12:11:25.654Z,100390.41
2018-03-20T12:12:31.815Z,100385.67
2018-03-20T12:13:37.963Z,100382.68
2018-03-20T12:14:43.748Z,100386.21
2018-03-20T12:15:49.761Z,100387.05
2018-03-20T12:16:55.984Z,100386.62
2018-03-20T12:18:01.953Z,100391.77
2018-03-20T12:19:07.913Z,100393.92
2018-03-20T12:20:14.072Z,100392.65
2018-03-20T12:21:21.997Z,100396.53
2018-03-20T12:22:28.323Z,100402.64
2018-03-20T12:23:34.558Z,100403.94
2018-03-20T12:24:46.694Z,100407.41
2018-03-20T12:25:52.619Z,100403.14
2018-03-20T12:26:58.869Z,100407.42
2018-03-20T12:28:04.815Z,100412.22
2018-03-20T12:29:11.012Z,100408.77
2018-03-20T12:30:17.358Z,100415.23
2018-03-20T12:31:23.970Z,100418.70
2018-03-20T12:32:30.182Z,100419.55
2018-03-20T12:33:36.354Z,100418.67
2018-03-20T12:34:42.633Z,100429.56
2018-03-20T12:35:48.971Z,100421.80
2018-03-20T12:36:55.244Z,100426.08
2018-03-20T12:38:01.448Z,100434.29
2018-03-20T12:39:07.663Z,100435.21
2018-03-20T12:40:13.570Z,100429.63
2018-03-20T12:41:19.744Z,100429.59
2018-03-20T12:42:26.527Z,100431.73
2018-03-20T12:43:32.750Z,100434.30
2018-03-20T12:44:39.356Z,100434.31
2018-03-20T12:45:45.557Z,100435.99
2018-03-20T12:46:51.492Z,100439.86
2018-03-20T12:47:57.719Z,100444.59
2018-03-20T12:49:04.015Z,100460.56
2018-03-20T12:50:10.217Z,100448.06
2018-03-20T12:51:16.644Z,100453.67
2018-03-20T12:52:22.936Z,100451.98